sensor_id;sensor_type;location;lat;lon;timestamp;P1;durP1;ratioP1;P2;durP2;ratioP2
34565;SDS011;20803;42.676;26.348;2022-10-16T00:00:16;4.40;;;2.50;;
34565;SDS011;20803;42.676;26.348;2022-10-16T00:02:42;3.93;;;2.50;;
34565;SDS011;20803;42.676;26.348;2022-10-16T00:05:07;5.73;;;3.93;;
34565;SDS011;20803;42.676;26.348;2022-10-16T00:07:33;3.63;;;2.60;;
34565;SDS011;20803;42.676;26.348;2022-10-16T00:09:58;3.70;;;3.13;;
34565;SDS011;20803;42.676;26.348;2022-10-16T00:12:23;3.97;;;2.93;;
34565;SDS011;20803;42.676;26.348;2022-10-16T00:14:49;3.87;;;3.10;;
34565;SDS011;20803;42.676;26.348;2022-10-16T00:17:14;4.57;;;3.40;;
34565;SDS011;20803;42.676;26.348;2022-10-16T00:19:39;4.97;;;3.30;;
34565;SDS011;20803;42.676;26.348;2022-10-16T00:22:05;3.97;;;3.23;;
34565;SDS011;20803;42.676;26.348;2022-10-16T00:24:30;4.47;;;3.67;;
34565;SDS011;20803;42.676;26.348;2022-10-16T00:26:56;9.73;;;3.83;;
34565;SDS011;20803;42.676;26.348;2022-10-16T00:29:21;9.43;;;3.90;;
34565;SDS011;20803;42.676;26.348;2022-10-16T00:31:46;5.57;;;3.87;;
34565;SDS011;20803;42.676;26.348;2022-10-16T00:34:12;5.10;;;3.70;;
34565;SDS011;20803;42.676;26.348;2022-10-16T00:36:37;5.07;;;3.80;;
34565;SDS011;20803;42.676;26.348;2022-10-16T00:39:03;7.30;;;4.00;;
34565;SDS011;20803;42.676;26.348;2022-10-16T00:41:29;8.13;;;4.27;;
34565;SDS011;20803;42.676;26.348;2022-10-16T00:44:01;5.70;;;4.47;;
34565;SDS011;20803;42.676;26.348;2022-10-16T00:46:34;9.80;;;5.13;;
34565;SDS011;20803;42.676;26.348;2022-10-16T00:51:39;9.17;;;4.83;;
34565;SDS011;20803;42.676;26.348;2022-10-16T00:54:16;7.73;;;4.37;;
34565;SDS011;20803;42.676;26.348;2022-10-16T00:56:46;8.03;;;4.80;;
34565;SDS011;20803;42.676;26.348;2022-10-16T00:59:32;5.60;;;4.10;;
34565;SDS011;20803;42.676;26.348;2022-10-16T01:01:59;7.00;;;4.33;;
34565;SDS011;20803;42.676;26.348;2022-10-16T01:04:25;4.87;;;4.37;;
34565;SDS011;20803;42.676;26.348;2022-10-16T01:12:16;7.60;;;4.50;;
34565;SDS011;20803;42.676;26.348;2022-10-16T01:17:17;6.83;;;4.70;;
34565;SDS011;20803;42.676;26.348;2022-10-16T01:22:24;5.07;;;4.20;;
34565;SDS011;20803;42.676;26.348;2022-10-16T01:24:53;7.07;;;4.53;;
34565;SDS011;20803;42.676;26.348;2022-10-16T01:27:24;9.43;;;4.53;;
34565;SDS011;20803;42.676;26.348;2022-10-16T01:29:54;5.67;;;4.53;;
34565;SDS011;20803;42.676;26.348;2022-10-16T01:35:38;5.30;;;3.77;;
34565;SDS011;20803;42.676;26.348;2022-10-16T01:38:18;5.10;;;4.00;;
34565;SDS011;20803;42.676;26.348;2022-10-16T01:40:51;5.60;;;4.17;;
34565;SDS011;20803;42.676;26.348;2022-10-16T01:43:22;6.50;;;4.20;;
34565;SDS011;20803;42.676;26.348;2022-10-16T01:46:00;7.03;;;4.40;;
34565;SDS011;20803;42.676;26.348;2022-10-16T01:48:26;4.77;;;4.03;;
34565;SDS011;20803;42.676;26.348;2022-10-16T01:50:58;5.77;;;4.13;;
34565;SDS011;20803;42.676;26.348;2022-10-16T01:53:28;6.43;;;4.37;;
34565;SDS011;20803;42.676;26.348;2022-10-16T01:55:55;9.43;;;5.03;;
34565;SDS011;20803;42.676;26.348;2022-10-16T01:58:23;6.67;;;4.20;;
34565;SDS011;20803;42.676;26.348;2022-10-16T02:00:51;7.53;;;4.43;;
34565;SDS011;20803;42.676;26.348;2022-10-16T02:03:19;7.30;;;4.23;;
34565;SDS011;20803;42.676;26.348;2022-10-16T02:05:52;5.20;;;4.50;;
34565;SDS011;20803;42.676;26.348;2022-10-16T02:08:20;5.57;;;4.53;;
34565;SDS011;20803;42.676;26.348;2022-10-16T02:10:49;7.13;;;4.80;;
34565;SDS011;20803;42.676;26.348;2022-10-16T02:13:50;9.80;;;5.57;;
34565;SDS011;20803;42.676;26.348;2022-10-16T02:16:12;10.33;;;6.03;;
34565;SDS011;20803;42.676;26.348;2022-10-16T02:18:39;8.27;;;4.67;;
34565;SDS011;20803;42.676;26.348;2022-10-16T02:21:13;8.67;;;4.77;;
34565;SDS011;20803;42.676;26.348;2022-10-16T02:29:33;6.77;;;4.80;;
34565;SDS011;20803;42.676;26.348;2022-10-16T02:32:05;9.93;;;4.13;;
34565;SDS011;20803;42.676;26.348;2022-10-16T02:34:33;5.30;;;4.10;;
34565;SDS011;20803;42.676;26.348;2022-10-16T02:37:00;8.27;;;4.77;;
34565;SDS011;20803;42.676;26.348;2022-10-16T02:39:29;6.67;;;4.40;;
34565;SDS011;20803;42.676;26.348;2022-10-16T02:41:55;7.07;;;4.50;;
34565;SDS011;20803;42.676;26.348;2022-10-16T02:44:20;6.07;;;4.77;;
34565;SDS011;20803;42.676;26.348;2022-10-16T02:46:46;6.03;;;4.80;;
34565;SDS011;20803;42.676;26.348;2022-10-16T02:49:11;6.43;;;4.60;;
34565;SDS011;20803;42.676;26.348;2022-10-16T02:51:37;8.70;;;5.53;;
34565;SDS011;20803;42.676;26.348;2022-10-16T02:54:02;7.70;;;4.63;;
34565;SDS011;20803;42.676;26.348;2022-10-16T02:56:28;8.77;;;5.00;;
34565;SDS011;20803;42.676;26.348;2022-10-16T02:58:55;8.37;;;5.57;;
34565;SDS011;20803;42.676;26.348;2022-10-16T03:01:20;10.83;;;6.37;;
34565;SDS011;20803;42.676;26.348;2022-10-16T03:03:46;6.50;;;5.10;;
34565;SDS011;20803;42.676;26.348;2022-10-16T03:06:11;17.60;;;6.10;;
34565;SDS011;20803;42.676;26.348;2022-10-16T03:08:37;7.47;;;5.30;;
34565;SDS011;20803;42.676;26.348;2022-10-16T03:11:02;8.77;;;5.53;;
34565;SDS011;20803;42.676;26.348;2022-10-16T03:13:27;11.80;;;6.70;;
34565;SDS011;20803;42.676;26.348;2022-10-16T03:15:53;10.60;;;7.00;;
34565;SDS011;20803;42.676;26.348;2022-10-16T03:18:18;8.07;;;6.40;;
34565;SDS011;20803;42.676;26.348;2022-10-16T03:20:44;8.97;;;6.00;;
34565;SDS011;20803;42.676;26.348;2022-10-16T03:23:09;12.83;;;6.27;;
34565;SDS011;20803;42.676;26.348;2022-10-16T03:25:35;10.20;;;6.20;;
34565;SDS011;20803;42.676;26.348;2022-10-16T03:28:00;8.17;;;6.03;;
34565;SDS011;20803;42.676;26.348;2022-10-16T03:30:26;9.27;;;6.47;;
34565;SDS011;20803;42.676;26.348;2022-10-16T03:32:51;8.53;;;6.47;;
34565;SDS011;20803;42.676;26.348;2022-10-16T03:35:19;8.40;;;6.40;;
34565;SDS011;20803;42.676;26.348;2022-10-16T03:37:48;10.83;;;6.27;;
34565;SDS011;20803;42.676;26.348;2022-10-16T03:40:14;9.77;;;6.57;;
34565;SDS011;20803;42.676;26.348;2022-10-16T03:42:42;7.07;;;6.37;;
34565;SDS011;20803;42.676;26.348;2022-10-16T03:45:07;9.07;;;6.93;;
34565;SDS011;20803;42.676;26.348;2022-10-16T03:47:33;9.27;;;6.73;;
34565;SDS011;20803;42.676;26.348;2022-10-16T03:49:59;10.07;;;6.50;;
34565;SDS011;20803;42.676;26.348;2022-10-16T03:52:25;13.40;;;6.60;;
34565;SDS011;20803;42.676;26.348;2022-10-16T03:54:50;11.30;;;7.93;;
34565;SDS011;20803;42.676;26.348;2022-10-16T03:57:16;11.27;;;8.43;;
34565;SDS011;20803;42.676;26.348;2022-10-16T03:59:41;10.37;;;6.77;;
34565;SDS011;20803;42.676;26.348;2022-10-16T04:02:07;10.93;;;8.30;;
34565;SDS011;20803;42.676;26.348;2022-10-16T04:04:32;13.00;;;8.77;;
34565;SDS011;20803;42.676;26.348;2022-10-16T04:06:59;12.23;;;9.10;;
34565;SDS011;20803;42.676;26.348;2022-10-16T04:09:24;10.20;;;8.20;;
34565;SDS011;20803;42.676;26.348;2022-10-16T04:11:51;13.43;;;8.17;;
34565;SDS011;20803;42.676;26.348;2022-10-16T04:14:16;15.70;;;10.37;;
34565;SDS011;20803;42.676;26.348;2022-10-16T04:16:41;16.67;;;8.73;;
34565;SDS011;20803;42.676;26.348;2022-10-16T04:19:07;13.73;;;9.50;;
34565;SDS011;20803;42.676;26.348;2022-10-16T04:21:32;10.10;;;8.63;;
34565;SDS011;20803;42.676;26.348;2022-10-16T04:23:58;12.47;;;8.90;;
34565;SDS011;20803;42.676;26.348;2022-10-16T04:26:23;12.67;;;9.07;;
34565;SDS011;20803;42.676;26.348;2022-10-16T04:28:48;13.27;;;9.50;;
34565;SDS011;20803;42.676;26.348;2022-10-16T04:31:14;13.90;;;10.27;;
34565;SDS011;20803;42.676;26.348;2022-10-16T04:33:41;18.37;;;12.40;;
34565;SDS011;20803;42.676;26.348;2022-10-16T04:36:08;20.43;;;11.27;;
34565;SDS011;20803;42.676;26.348;2022-10-16T04:38:33;19.03;;;12.97;;
34565;SDS011;20803;42.676;26.348;2022-10-16T04:40:59;22.97;;;17.07;;
34565;SDS011;20803;42.676;26.348;2022-10-16T04:43:25;31.17;;;17.83;;
34565;SDS011;20803;42.676;26.348;2022-10-16T04:45:50;22.00;;;14.13;;
34565;SDS011;20803;42.676;26.348;2022-10-16T04:48:16;24.40;;;14.20;;
34565;SDS011;20803;42.676;26.348;2022-10-16T04:50:43;16.90;;;11.60;;
34565;SDS011;20803;42.676;26.348;2022-10-16T04:53:08;17.53;;;10.77;;
34565;SDS011;20803;42.676;26.348;2022-10-16T04:55:33;16.70;;;10.27;;
34565;SDS011;20803;42.676;26.348;2022-10-16T04:57:59;14.73;;;9.90;;
34565;SDS011;20803;42.676;26.348;2022-10-16T05:00:24;17.40;;;10.33;;
34565;SDS011;20803;42.676;26.348;2022-10-16T05:02:50;17.57;;;10.27;;
34565;SDS011;20803;42.676;26.348;2022-10-16T05:05:16;13.70;;;10.80;;
34565;SDS011;20803;42.676;26.348;2022-10-16T05:07:42;19.37;;;12.10;;
34565;SDS011;20803;42.676;26.348;2022-10-16T05:10:07;17.57;;;11.17;;
34565;SDS011;20803;42.676;26.348;2022-10-16T05:12:32;15.73;;;11.43;;
34565;SDS011;20803;42.676;26.348;2022-10-16T05:14:58;20.40;;;11.90;;
34565;SDS011;20803;42.676;26.348;2022-10-16T05:17:24;17.87;;;10.97;;
34565;SDS011;20803;42.676;26.348;2022-10-16T05:19:50;16.00;;;11.13;;
34565;SDS011;20803;42.676;26.348;2022-10-16T05:22:15;12.03;;;10.57;;
34565;SDS011;20803;42.676;26.348;2022-10-16T05:24:41;23.00;;;17.63;;
34565;SDS011;20803;42.676;26.348;2022-10-16T05:27:06;18.43;;;12.00;;
34565;SDS011;20803;42.676;26.348;2022-10-16T05:29:32;16.90;;;13.33;;
34565;SDS011;20803;42.676;26.348;2022-10-16T05:31:57;20.17;;;15.03;;
34565;SDS011;20803;42.676;26.348;2022-10-16T05:34:22;32.77;;;21.43;;
34565;SDS011;20803;42.676;26.348;2022-10-16T05:36:48;28.53;;;19.83;;
34565;SDS011;20803;42.676;26.348;2022-10-16T05:39:14;25.90;;;19.63;;
34565;SDS011;20803;42.676;26.348;2022-10-16T05:41:40;29.30;;;19.53;;
34565;SDS011;20803;42.676;26.348;2022-10-16T05:44:05;25.43;;;17.53;;
34565;SDS011;20803;42.676;26.348;2022-10-16T05:46:31;25.50;;;16.83;;
34565;SDS011;20803;42.676;26.348;2022-10-16T05:48:57;26.80;;;14.37;;
34565;SDS011;20803;42.676;26.348;2022-10-16T05:51:23;20.50;;;12.97;;
34565;SDS011;20803;42.676;26.348;2022-10-16T05:53:48;18.70;;;11.70;;
34565;SDS011;20803;42.676;26.348;2022-10-16T05:56:14;14.40;;;11.00;;
34565;SDS011;20803;42.676;26.348;2022-10-16T05:58:40;18.47;;;11.10;;
34565;SDS011;20803;42.676;26.348;2022-10-16T06:01:09;19.13;;;9.67;;
34565;SDS011;20803;42.676;26.348;2022-10-16T06:03:36;13.70;;;10.37;;
34565;SDS011;20803;42.676;26.348;2022-10-16T06:06:09;18.77;;;11.37;;
34565;SDS011;20803;42.676;26.348;2022-10-16T06:08:36;11.77;;;8.30;;
34565;SDS011;20803;42.676;26.348;2022-10-16T06:11:05;9.07;;;7.20;;
34565;SDS011;20803;42.676;26.348;2022-10-16T06:13:32;10.27;;;7.17;;
34565;SDS011;20803;42.676;26.348;2022-10-16T06:15:58;19.10;;;7.20;;
34565;SDS011;20803;42.676;26.348;2022-10-16T06:18:25;12.03;;;8.77;;
34565;SDS011;20803;42.676;26.348;2022-10-16T06:20:52;11.27;;;7.60;;
34565;SDS011;20803;42.676;26.348;2022-10-16T06:23:18;9.63;;;7.73;;
34565;SDS011;20803;42.676;26.348;2022-10-16T06:25:43;9.90;;;7.27;;
34565;SDS011;20803;42.676;26.348;2022-10-16T06:28:08;16.13;;;8.60;;
34565;SDS011;20803;42.676;26.348;2022-10-16T06:30:34;10.20;;;7.57;;
34565;SDS011;20803;42.676;26.348;2022-10-16T06:32:59;11.50;;;6.97;;
34565;SDS011;20803;42.676;26.348;2022-10-16T06:35:24;12.27;;;7.73;;
34565;SDS011;20803;42.676;26.348;2022-10-16T06:37:50;11.47;;;8.50;;
34565;SDS011;20803;42.676;26.348;2022-10-16T06:40:18;11.53;;;7.47;;
34565;SDS011;20803;42.676;26.348;2022-10-16T06:42:43;16.60;;;8.73;;
34565;SDS011;20803;42.676;26.348;2022-10-16T06:45:10;13.47;;;8.17;;
34565;SDS011;20803;42.676;26.348;2022-10-16T06:47:35;15.00;;;7.83;;
34565;SDS011;20803;42.676;26.348;2022-10-16T06:50:01;11.33;;;7.17;;
34565;SDS011;20803;42.676;26.348;2022-10-16T06:52:30;15.10;;;8.10;;
34565;SDS011;20803;42.676;26.348;2022-10-16T06:54:55;23.03;;;8.57;;
34565;SDS011;20803;42.676;26.348;2022-10-16T06:57:21;12.37;;;7.63;;
34565;SDS011;20803;42.676;26.348;2022-10-16T06:59:46;7.90;;;4.97;;
34565;SDS011;20803;42.676;26.348;2022-10-16T07:02:12;9.73;;;6.50;;
34565;SDS011;20803;42.676;26.348;2022-10-16T07:04:37;9.07;;;6.30;;
34565;SDS011;20803;42.676;26.348;2022-10-16T07:07:03;9.73;;;6.23;;
34565;SDS011;20803;42.676;26.348;2022-10-16T07:09:28;10.73;;;6.23;;
34565;SDS011;20803;42.676;26.348;2022-10-16T07:11:53;14.53;;;5.20;;
34565;SDS011;20803;42.676;26.348;2022-10-16T07:14:19;7.30;;;5.63;;
34565;SDS011;20803;42.676;26.348;2022-10-16T07:16:46;7.33;;;4.67;;
34565;SDS011;20803;42.676;26.348;2022-10-16T07:19:12;6.63;;;4.77;;
34565;SDS011;20803;42.676;26.348;2022-10-16T07:21:40;7.37;;;4.80;;
34565;SDS011;20803;42.676;26.348;2022-10-16T07:24:06;6.80;;;4.57;;
34565;SDS011;20803;42.676;26.348;2022-10-16T07:26:36;9.60;;;5.07;;
34565;SDS011;20803;42.676;26.348;2022-10-16T07:29:04;6.57;;;4.47;;
34565;SDS011;20803;42.676;26.348;2022-10-16T07:31:30;9.47;;;4.63;;
34565;SDS011;20803;42.676;26.348;2022-10-16T07:33:57;7.50;;;4.57;;
34565;SDS011;20803;42.676;26.348;2022-10-16T07:36:24;4.97;;;3.80;;
34565;SDS011;20803;42.676;26.348;2022-10-16T07:38:49;8.43;;;3.60;;
34565;SDS011;20803;42.676;26.348;2022-10-16T07:41:16;4.20;;;3.80;;
34565;SDS011;20803;42.676;26.348;2022-10-16T07:43:51;6.17;;;3.50;;
34565;SDS011;20803;42.676;26.348;2022-10-16T07:46:18;5.97;;;3.17;;
34565;SDS011;20803;42.676;26.348;2022-10-16T07:48:45;6.40;;;4.00;;
34565;SDS011;20803;42.676;26.348;2022-10-16T07:51:13;9.07;;;3.40;;
34565;SDS011;20803;42.676;26.348;2022-10-16T07:53:40;7.00;;;4.10;;
34565;SDS011;20803;42.676;26.348;2022-10-16T07:56:06;8.53;;;3.87;;
34565;SDS011;20803;42.676;26.348;2022-10-16T07:58:32;7.70;;;3.50;;
34565;SDS011;20803;42.676;26.348;2022-10-16T08:01:02;6.20;;;3.53;;
34565;SDS011;20803;42.676;26.348;2022-10-16T08:03:32;4.43;;;3.77;;
34565;SDS011;20803;42.676;26.348;2022-10-16T08:05:58;5.87;;;3.03;;
34565;SDS011;20803;42.676;26.348;2022-10-16T08:08:24;5.47;;;3.60;;
34565;SDS011;20803;42.676;26.348;2022-10-16T08:10:50;3.87;;;3.17;;
34565;SDS011;20803;42.676;26.348;2022-10-16T08:13:15;5.77;;;2.97;;
34565;SDS011;20803;42.676;26.348;2022-10-16T08:15:41;5.90;;;3.50;;
34565;SDS011;20803;42.676;26.348;2022-10-16T08:18:10;3.87;;;3.20;;
34565;SDS011;20803;42.676;26.348;2022-10-16T08:20:37;4.43;;;3.17;;
34565;SDS011;20803;42.676;26.348;2022-10-16T08:23:03;8.17;;;3.47;;
34565;SDS011;20803;42.676;26.348;2022-10-16T08:25:29;5.13;;;3.13;;
34565;SDS011;20803;42.676;26.348;2022-10-16T08:27:54;7.00;;;3.20;;
34565;SDS011;20803;42.676;26.348;2022-10-16T08:30:20;7.70;;;3.40;;
34565;SDS011;20803;42.676;26.348;2022-10-16T08:32:46;7.37;;;3.10;;
34565;SDS011;20803;42.676;26.348;2022-10-16T08:35:13;6.17;;;3.30;;
34565;SDS011;20803;42.676;26.348;2022-10-16T08:37:39;5.20;;;2.70;;
34565;SDS011;20803;42.676;26.348;2022-10-16T08:40:06;3.53;;;3.10;;
34565;SDS011;20803;42.676;26.348;2022-10-16T08:45:06;4.07;;;3.07;;
34565;SDS011;20803;42.676;26.348;2022-10-16T08:50:30;10.90;;;3.83;;
34565;SDS011;20803;42.676;26.348;2022-10-16T08:52:58;6.97;;;3.30;;
34565;SDS011;20803;42.676;26.348;2022-10-16T08:58:14;4.37;;;3.37;;
34565;SDS011;20803;42.676;26.348;2022-10-16T09:00:42;6.07;;;3.30;;
34565;SDS011;20803;42.676;26.348;2022-10-16T09:08:42;4.73;;;2.67;;
34565;SDS011;20803;42.676;26.348;2022-10-16T09:14:07;4.33;;;3.20;;
34565;SDS011;20803;42.676;26.348;2022-10-16T09:16:51;5.40;;;2.93;;
34565;SDS011;20803;42.676;26.348;2022-10-16T09:19:36;5.53;;;2.93;;
34565;SDS011;20803;42.676;26.348;2022-10-16T09:22:25;4.00;;;3.30;;
34565;SDS011;20803;42.676;26.348;2022-10-16T09:24:54;9.10;;;3.20;;
34565;SDS011;20803;42.676;26.348;2022-10-16T09:27:24;5.33;;;2.77;;
34565;SDS011;20803;42.676;26.348;2022-10-16T09:29:51;6.00;;;3.10;;
34565;SDS011;20803;42.676;26.348;2022-10-16T09:32:19;10.80;;;3.17;;
34565;SDS011;20803;42.676;26.348;2022-10-16T09:34:47;6.87;;;3.00;;
34565;SDS011;20803;42.676;26.348;2022-10-16T09:37:17;4.03;;;2.90;;
34565;SDS011;20803;42.676;26.348;2022-10-16T09:39:49;5.43;;;3.00;;
34565;SDS011;20803;42.676;26.348;2022-10-16T09:42:20;4.70;;;2.83;;
34565;SDS011;20803;42.676;26.348;2022-10-16T09:44:52;3.13;;;2.67;;
34565;SDS011;20803;42.676;26.348;2022-10-16T09:49:52;6.67;;;2.83;;
34565;SDS011;20803;42.676;26.348;2022-10-16T09:52:20;6.03;;;3.33;;
34565;SDS011;20803;42.676;26.348;2022-10-16T09:54:52;11.13;;;3.37;;
34565;SDS011;20803;42.676;26.348;2022-10-16T09:57:19;5.30;;;3.27;;
34565;SDS011;20803;42.676;26.348;2022-10-16T09:59:52;3.83;;;2.70;;
34565;SDS011;20803;42.676;26.348;2022-10-16T10:02:24;9.50;;;2.83;;
34565;SDS011;20803;42.676;26.348;2022-10-16T10:04:52;4.50;;;2.70;;
34565;SDS011;20803;42.676;26.348;2022-10-16T10:07:42;3.40;;;2.83;;
34565;SDS011;20803;42.676;26.348;2022-10-16T10:13:20;6.33;;;3.40;;
34565;SDS011;20803;42.676;26.348;2022-10-16T10:15:46;6.93;;;4.27;;
34565;SDS011;20803;42.676;26.348;2022-10-16T10:18:19;4.90;;;3.13;;
34565;SDS011;20803;42.676;26.348;2022-10-16T10:20:56;6.40;;;3.50;;
34565;SDS011;20803;42.676;26.348;2022-10-16T10:23:27;7.17;;;2.67;;
34565;SDS011;20803;42.676;26.348;2022-10-16T10:26:09;4.33;;;3.33;;
34565;SDS011;20803;42.676;26.348;2022-10-16T10:29:00;6.20;;;3.60;;
34565;SDS011;20803;42.676;26.348;2022-10-16T10:34:50;4.03;;;2.53;;
34565;SDS011;20803;42.676;26.348;2022-10-16T10:45:45;6.43;;;2.80;;
34565;SDS011;20803;42.676;26.348;2022-10-16T10:51:04;4.33;;;2.97;;
34565;SDS011;20803;42.676;26.348;2022-10-16T10:53:44;6.00;;;3.37;;
34565;SDS011;20803;42.676;26.348;2022-10-16T11:04:33;3.90;;;2.93;;
34565;SDS011;20803;42.676;26.348;2022-10-16T11:07:02;5.77;;;2.80;;
34565;SDS011;20803;42.676;26.348;2022-10-16T11:09:37;4.50;;;2.87;;
34565;SDS011;20803;42.676;26.348;2022-10-16T11:17:38;6.50;;;2.87;;
34565;SDS011;20803;42.676;26.348;2022-10-16T11:22:54;5.07;;;3.17;;
34565;SDS011;20803;42.676;26.348;2022-10-16T11:28:08;6.33;;;3.20;;
34565;SDS011;20803;42.676;26.348;2022-10-16T11:30:45;4.67;;;2.73;;
34565;SDS011;20803;42.676;26.348;2022-10-16T11:49:33;5.23;;;2.73;;
34565;SDS011;20803;42.676;26.348;2022-10-16T11:54:38;6.37;;;2.80;;
34565;SDS011;20803;42.676;26.348;2022-10-16T11:57:39;5.07;;;2.97;;
34565;SDS011;20803;42.676;26.348;2022-10-16T12:03:03;9.80;;;3.03;;
34565;SDS011;20803;42.676;26.348;2022-10-16T12:08:23;5.47;;;2.60;;
34565;SDS011;20803;42.676;26.348;2022-10-16T12:10:49;5.60;;;2.63;;
34565;SDS011;20803;42.676;26.348;2022-10-16T12:18:30;3.93;;;3.10;;
34565;SDS011;20803;42.676;26.348;2022-10-16T12:20:59;5.47;;;2.67;;
34565;SDS011;20803;42.676;26.348;2022-10-16T12:23:31;8.07;;;3.03;;
34565;SDS011;20803;42.676;26.348;2022-10-16T12:26:27;6.63;;;2.77;;
34565;SDS011;20803;42.676;26.348;2022-10-16T12:28:55;3.53;;;2.80;;
34565;SDS011;20803;42.676;26.348;2022-10-16T12:31:37;4.13;;;2.80;;
34565;SDS011;20803;42.676;26.348;2022-10-16T12:34:20;6.00;;;2.83;;
34565;SDS011;20803;42.676;26.348;2022-10-16T12:37:15;7.17;;;2.47;;
34565;SDS011;20803;42.676;26.348;2022-10-16T12:39:44;3.00;;;2.50;;
34565;SDS011;20803;42.676;26.348;2022-10-16T12:44:51;5.57;;;2.70;;
34565;SDS011;20803;42.676;26.348;2022-10-16T12:49:58;3.10;;;2.27;;
34565;SDS011;20803;42.676;26.348;2022-10-16T12:52:36;4.37;;;2.17;;
34565;SDS011;20803;42.676;26.348;2022-10-16T12:55:03;3.27;;;2.10;;
34565;SDS011;20803;42.676;26.348;2022-10-16T13:05:44;2.50;;;2.30;;
34565;SDS011;20803;42.676;26.348;2022-10-16T13:22:08;3.33;;;2.57;;
34565;SDS011;20803;42.676;26.348;2022-10-16T13:33:07;4.43;;;2.43;;
34565;SDS011;20803;42.676;26.348;2022-10-16T13:35:49;4.70;;;3.20;;
34565;SDS011;20803;42.676;26.348;2022-10-16T13:38:19;4.00;;;2.47;;
34565;SDS011;20803;42.676;26.348;2022-10-16T13:40:50;4.37;;;3.37;;
34565;SDS011;20803;42.676;26.348;2022-10-16T13:46:11;11.03;;;2.93;;
34565;SDS011;20803;42.676;26.348;2022-10-16T13:48:38;5.97;;;2.53;;
34565;SDS011;20803;42.676;26.348;2022-10-16T13:53:40;4.23;;;2.43;;
34565;SDS011;20803;42.676;26.348;2022-10-16T13:56:09;5.17;;;2.37;;
34565;SDS011;20803;42.676;26.348;2022-10-16T13:58:36;6.10;;;2.50;;
34565;SDS011;20803;42.676;26.348;2022-10-16T14:01:03;3.70;;;2.47;;
34565;SDS011;20803;42.676;26.348;2022-10-16T14:03:30;3.93;;;2.83;;
34565;SDS011;20803;42.676;26.348;2022-10-16T14:05:59;3.37;;;2.83;;
34565;SDS011;20803;42.676;26.348;2022-10-16T14:08:27;8.00;;;2.97;;
34565;SDS011;20803;42.676;26.348;2022-10-16T14:11:01;5.20;;;3.10;;
34565;SDS011;20803;42.676;26.348;2022-10-16T14:15:52;5.43;;;2.70;;
34565;SDS011;20803;42.676;26.348;2022-10-16T14:18:23;4.77;;;2.67;;
34565;SDS011;20803;42.676;26.348;2022-10-16T14:20:50;4.73;;;2.77;;
34565;SDS011;20803;42.676;26.348;2022-10-16T14:23:21;3.47;;;2.50;;
34565;SDS011;20803;42.676;26.348;2022-10-16T14:25:48;7.20;;;2.80;;
34565;SDS011;20803;42.676;26.348;2022-10-16T14:28:18;4.40;;;2.53;;
34565;SDS011;20803;42.676;26.348;2022-10-16T14:30:51;4.67;;;3.00;;
34565;SDS011;20803;42.676;26.348;2022-10-16T14:33:23;5.53;;;2.77;;
34565;SDS011;20803;42.676;26.348;2022-10-16T14:35:59;6.03;;;3.23;;
34565;SDS011;20803;42.676;26.348;2022-10-16T14:38:27;3.27;;;2.77;;
34565;SDS011;20803;42.676;26.348;2022-10-16T14:40:54;8.97;;;2.80;;
34565;SDS011;20803;42.676;26.348;2022-10-16T14:46:14;4.23;;;3.13;;
34565;SDS011;20803;42.676;26.348;2022-10-16T14:48:43;4.80;;;3.10;;
34565;SDS011;20803;42.676;26.348;2022-10-16T14:51:14;7.17;;;3.33;;
34565;SDS011;20803;42.676;26.348;2022-10-16T14:53:41;6.23;;;3.10;;
34565;SDS011;20803;42.676;26.348;2022-10-16T14:56:07;4.00;;;2.90;;
34565;SDS011;20803;42.676;26.348;2022-10-16T14:58:47;4.03;;;3.30;;
34565;SDS011;20803;42.676;26.348;2022-10-16T15:01:14;6.07;;;3.20;;
34565;SDS011;20803;42.676;26.348;2022-10-16T15:03:40;6.30;;;3.50;;
34565;SDS011;20803;42.676;26.348;2022-10-16T15:06:09;3.50;;;3.20;;
34565;SDS011;20803;42.676;26.348;2022-10-16T15:08:36;4.17;;;3.17;;
34565;SDS011;20803;42.676;26.348;2022-10-16T15:11:02;7.13;;;3.47;;
34565;SDS011;20803;42.676;26.348;2022-10-16T15:13:28;11.50;;;3.70;;
34565;SDS011;20803;42.676;26.348;2022-10-16T15:15:53;5.77;;;3.97;;
34565;SDS011;20803;42.676;26.348;2022-10-16T15:18:19;8.10;;;3.70;;
34565;SDS011;20803;42.676;26.348;2022-10-16T15:20:47;6.97;;;3.87;;
34565;SDS011;20803;42.676;26.348;2022-10-16T15:23:15;6.93;;;3.97;;
34565;SDS011;20803;42.676;26.348;2022-10-16T15:28:11;5.13;;;3.30;;
34565;SDS011;20803;42.676;26.348;2022-10-16T15:30:38;5.53;;;3.70;;
34565;SDS011;20803;42.676;26.348;2022-10-16T15:33:05;6.93;;;3.77;;
34565;SDS011;20803;42.676;26.348;2022-10-16T15:35:35;6.60;;;3.63;;
34565;SDS011;20803;42.676;26.348;2022-10-16T15:38:00;6.20;;;3.57;;
34565;SDS011;20803;42.676;26.348;2022-10-16T15:40:26;7.20;;;3.77;;
34565;SDS011;20803;42.676;26.348;2022-10-16T15:42:51;5.83;;;3.40;;
34565;SDS011;20803;42.676;26.348;2022-10-16T15:45:17;7.60;;;3.87;;
34565;SDS011;20803;42.676;26.348;2022-10-16T15:47:44;7.30;;;3.30;;
34565;SDS011;20803;42.676;26.348;2022-10-16T15:50:12;7.00;;;3.67;;
34565;SDS011;20803;42.676;26.348;2022-10-16T15:52:39;8.97;;;3.73;;
34565;SDS011;20803;42.676;26.348;2022-10-16T15:55:08;6.13;;;4.30;;
34565;SDS011;20803;42.676;26.348;2022-10-16T15:57:35;6.00;;;4.13;;
34565;SDS011;20803;42.676;26.348;2022-10-16T16:00:06;4.93;;;3.87;;
34565;SDS011;20803;42.676;26.348;2022-10-16T16:02:33;7.30;;;3.60;;
34565;SDS011;20803;42.676;26.348;2022-10-16T16:04:58;7.63;;;3.90;;
34565;SDS011;20803;42.676;26.348;2022-10-16T16:07:24;6.20;;;3.47;;
34565;SDS011;20803;42.676;26.348;2022-10-16T16:09:49;6.27;;;3.37;;
34565;SDS011;20803;42.676;26.348;2022-10-16T16:12:14;4.87;;;3.73;;
34565;SDS011;20803;42.676;26.348;2022-10-16T16:14:40;5.33;;;3.60;;
34565;SDS011;20803;42.676;26.348;2022-10-16T16:17:05;4.67;;;3.93;;
34565;SDS011;20803;42.676;26.348;2022-10-16T16:19:32;6.83;;;3.60;;
34565;SDS011;20803;42.676;26.348;2022-10-16T16:21:57;10.53;;;3.70;;
34565;SDS011;20803;42.676;26.348;2022-10-16T16:24:23;7.77;;;3.73;;
34565;SDS011;20803;42.676;26.348;2022-10-16T16:26:48;11.87;;;4.27;;
34565;SDS011;20803;42.676;26.348;2022-10-16T16:29:14;8.40;;;3.93;;
34565;SDS011;20803;42.676;26.348;2022-10-16T16:31:40;4.60;;;3.50;;
34565;SDS011;20803;42.676;26.348;2022-10-16T16:34:07;8.53;;;3.70;;
34565;SDS011;20803;42.676;26.348;2022-10-16T16:36:33;4.67;;;3.90;;
34565;SDS011;20803;42.676;26.348;2022-10-16T16:38:59;8.13;;;3.70;;
34565;SDS011;20803;42.676;26.348;2022-10-16T16:41:25;7.00;;;3.80;;
34565;SDS011;20803;42.676;26.348;2022-10-16T16:43:52;5.63;;;3.53;;
34565;SDS011;20803;42.676;26.348;2022-10-16T16:46:19;6.67;;;4.47;;
34565;SDS011;20803;42.676;26.348;2022-10-16T16:48:45;7.90;;;4.27;;
34565;SDS011;20803;42.676;26.348;2022-10-16T16:51:14;6.17;;;4.53;;
34565;SDS011;20803;42.676;26.348;2022-10-16T16:53:45;8.30;;;4.10;;
34565;SDS011;20803;42.676;26.348;2022-10-16T16:56:11;7.93;;;3.80;;
34565;SDS011;20803;42.676;26.348;2022-10-16T16:58:38;5.60;;;4.60;;
34565;SDS011;20803;42.676;26.348;2022-10-16T17:01:04;6.60;;;4.63;;
34565;SDS011;20803;42.676;26.348;2022-10-16T17:03:30;8.10;;;5.37;;
34565;SDS011;20803;42.676;26.348;2022-10-16T17:06:03;5.90;;;4.00;;
34565;SDS011;20803;42.676;26.348;2022-10-16T17:08:31;10.20;;;3.40;;
34565;SDS011;20803;42.676;26.348;2022-10-16T17:10:56;7.20;;;4.00;;
34565;SDS011;20803;42.676;26.348;2022-10-16T17:13:27;5.97;;;4.13;;